createdAt,value
2023-06-25T00:00:21.003Z,1044.00
2023-06-25T00:01:21.075Z,1041.00
2023-06-25T00:02:21.116Z,1040.00
2023-06-25T00:03:21.125Z,1043.00
2023-06-25T00:04:21.117Z,1050.00
2023-06-25T00:05:21.121Z,1051.00
2023-06-25T00:06:21.138Z,1057.00
2023-06-25T00:07:21.323Z,1047.00
2023-06-25T00:08:21.209Z,1060.00
2023-06-25T00:09:21.216Z,1035.00
2023-06-25T00:10:21.284Z,1042.00
2023-06-25T00:11:21.282Z,1041.00
2023-06-25T00:12:21.319Z,1032.00
2023-06-25T00:13:21.380Z,1023.00
2023-06-25T00:14:21.386Z,1025.00
2023-06-25T00:15:21.447Z,1031.00
2023-06-25T00:16:21.468Z,1031.00
2023-06-25T00:17:21.511Z,1026.00
2023-06-25T00:18:21.533Z,1020.00
2023-06-25T00:19:21.587Z,1017.00
2023-06-25T00:20:21.618Z,1017.00
2023-06-25T00:21:21.641Z,1011.00
2023-06-25T00:22:21.654Z,1022.00
2023-06-25T00:23:21.710Z,1001.00
2023-06-25T00:24:21.756Z,994.00
2023-06-25T00:25:21.766Z,1019.00
2023-06-25T00:26:21.800Z,1002.00
2023-06-25T00:27:21.828Z,1006.00
2023-06-25T00:28:21.905Z,1010.00
2023-06-25T00:29:21.944Z,1014.00
2023-06-25T00:30:23.453Z,1014.00
2023-06-25T00:31:22.037Z,1008.00
2023-06-25T00:32:22.076Z,995.00
2023-06-25T00:33:22.112Z,1005.00
2023-06-25T00:34:22.139Z,1018.00
2023-06-25T00:35:22.187Z,1007.00
2023-06-25T00:36:22.356Z,1028.00
2023-06-25T00:37:22.282Z,996.00
2023-06-25T00:38:22.323Z,1025.00
2023-06-25T00:39:22.348Z,1036.00
2023-06-25T00:40:22.373Z,1022.00
2023-06-25T00:41:22.457Z,1041.00
2023-06-25T00:42:24.525Z,1056.00
2023-06-25T00:43:22.864Z,1040.00
2023-06-25T00:44:22.487Z,1034.00
2023-06-25T00:45:22.468Z,1044.00
2023-06-25T00:46:22.477Z,1056.00
2023-06-25T00:47:22.493Z,1063.00
2023-06-25T00:48:22.454Z,1036.00
2023-06-25T00:49:22.453Z,1045.00
2023-06-25T00:50:22.468Z,1055.00
2023-06-25T00:51:22.445Z,1029.00
2023-06-25T00:52:22.436Z,1049.00
2023-06-25T00:53:22.452Z,1016.00
2023-06-25T00:54:22.430Z,1039.00
2023-06-25T00:55:22.421Z,1023.00
2023-06-25T00:56:22.402Z,1022.00
2023-06-25T00:57:22.391Z,1017.00
2023-06-25T00:58:22.417Z,1022.00
2023-06-25T00:59:22.383Z,1012.00
2023-06-25T01:00:22.378Z,1026.00
2023-06-25T01:01:22.371Z,1018.00
2023-06-25T01:02:22.541Z,1024.00
2023-06-25T01:03:22.425Z,1003.00
2023-06-25T01:04:22.356Z,991.00
2023-06-25T01:05:22.332Z,1011.00
2023-06-25T01:06:22.372Z,1034.00
2023-06-25T01:07:22.405Z,1009.00
2023-06-25T01:08:22.320Z,1020.00
2023-06-25T01:09:22.342Z,1028.00
2023-06-25T01:10:22.292Z,1040.00
2023-06-25T01:11:22.317Z,1028.00
2023-06-25T01:12:22.307Z,1055.00
2023-06-25T01:13:22.311Z,1058.00
2023-06-25T01:14:22.270Z,1055.00
2023-06-25T01:15:22.282Z,1067.00
2023-06-25T01:16:22.310Z,1042.00
2023-06-25T01:17:22.408Z,1076.00
2023-06-25T01:18:22.475Z,1039.00
2023-06-25T01:19:22.488Z,1041.00
2023-06-25T01:20:22.537Z,1049.00
2023-06-25T01:21:22.628Z,1041.00
2023-06-25T01:22:22.675Z,1057.00
2023-06-25T01:23:22.754Z,1045.00
2023-06-25T01:24:22.816Z,1034.00
2023-06-25T01:25:22.838Z,1042.00
2023-06-25T01:26:22.930Z,1029.00
2023-06-25T01:27:22.984Z,1042.00
2023-06-25T01:28:23.046Z,1028.00
2023-06-25T01:29:23.150Z,1028.00
2023-06-25T01:30:23.187Z,1013.00
2023-06-25T01:31:23.300Z,1026.00
2023-06-25T01:32:23.344Z,1013.00
2023-06-25T01:33:23.374Z,1006.00
2023-06-25T01:34:23.444Z,1008.00
2023-06-25T01:35:23.491Z,1014.00
2023-06-25T01:36:23.530Z,1012.00
2023-06-25T01:37:23.580Z,1021.00
2023-06-25T01:38:23.652Z,1015.00
2023-06-25T01:39:23.711Z,1020.00
2023-06-25T01:40:23.759Z,1011.00
2023-06-25T01:41:23.810Z,1032.00
2023-06-25T01:42:23.833Z,1030.00
2023-06-25T01:43:23.904Z,1021.00
2023-06-25T01:44:23.988Z,1038.00
2023-06-25T01:45:24.086Z,1024.00
2023-06-25T01:46:24.137Z,1000.00
2023-06-25T01:47:24.187Z,1022.00
2023-06-25T01:48:24.207Z,1031.00
2023-06-25T01:49:31.809Z,1034.00
2023-06-25T01:50:25.264Z,1035.00
2023-06-25T01:51:24.232Z,1029.00
2023-06-25T01:52:24.258Z,1003.00
2023-06-25T01:53:24.245Z,1005.00
2023-06-25T01:54:24.216Z,1017.00
2023-06-25T01:55:24.204Z,1008.00
2023-06-25T01:56:24.189Z,980.00
2023-06-25T01:57:24.214Z,1002.00
2023-06-25T01:58:24.235Z,1012.00
2023-06-25T01:59:24.209Z,1000.00
2023-06-25T02:00:24.285Z,986.00
2023-06-25T02:01:24.360Z,1011.00
2023-06-25T02:02:24.453Z,1002.00
2023-06-25T02:03:24.537Z,988.00
2023-06-25T02:04:24.565Z,1000.00
2023-06-25T02:05:24.635Z,987.00
2023-06-25T02:06:24.677Z,980.00
2023-06-25T02:07:24.757Z,1009.00
2023-06-25T02:08:24.758Z,1005.00
2023-06-25T02:09:24.840Z,991.00
2023-06-25T02:10:24.869Z,982.00
2023-06-25T02:11:24.894Z,989.00
2023-06-25T02:12:24.984Z,975.00
2023-06-25T02:13:25.074Z,997.00
2023-06-25T02:14:25.159Z,996.00
2023-06-25T02:15:25.218Z,980.00
2023-06-25T02:16:25.317Z,978.00
2023-06-25T02:17:25.335Z,998.00
2023-06-25T02:18:25.426Z,999.00
2023-06-25T02:19:25.430Z,999.00
2023-06-25T02:20:25.502Z,972.00
2023-06-25T02:21:25.569Z,949.00
2023-06-25T02:22:25.635Z,975.00
2023-06-25T02:23:25.661Z,955.00
2023-06-25T02:24:25.770Z,979.00
2023-06-25T02:25:25.834Z,952.00
2023-06-25T02:26:25.916Z,945.00
2023-06-25T02:27:25.951Z,953.00
2023-06-25T02:28:26.000Z,942.00
2023-06-25T02:29:26.061Z,955.00
2023-06-25T02:30:26.127Z,929.00
2023-06-25T02:31:26.255Z,946.00
2023-06-25T02:32:26.369Z,959.00
2023-06-25T02:33:26.339Z,946.00
2023-06-25T02:34:26.425Z,946.00
2023-06-25T02:35:26.434Z,956.00
2023-06-25T02:36:26.536Z,927.00
2023-06-25T02:37:26.584Z,967.00
2023-06-25T02:38:26.671Z,958.00
2023-06-25T02:39:26.706Z,930.00
2023-06-25T02:40:26.719Z,938.00
2023-06-25T02:41:26.832Z,932.00
2023-06-25T02:42:26.867Z,956.00
2023-06-25T02:43:26.869Z,964.00
2023-06-25T02:44:26.942Z,957.00
2023-06-25T02:45:27.125Z,954.00
2023-06-25T02:46:27.056Z,958.00
2023-06-25T02:47:27.183Z,962.00
2023-06-25T02:48:27.254Z,948.00
2023-06-25T02:49:27.400Z,960.00
2023-06-25T02:50:27.362Z,959.00
2023-06-25T02:51:27.382Z,956.00
2023-06-25T02:52:27.421Z,956.00
2023-06-25T02:53:27.504Z,963.00
2023-06-25T02:54:27.519Z,944.00
2023-06-25T02:55:27.572Z,964.00
2023-06-25T02:56:27.573Z,956.00
2023-06-25T02:57:27.682Z,960.00
2023-06-25T02:58:27.737Z,952.00
2023-06-25T02:59:27.726Z,957.00
2023-06-25T03:00:27.764Z,966.00
2023-06-25T03:01:27.789Z,970.00
2023-06-25T03:02:27.893Z,975.00
2023-06-25T03:03:27.886Z,986.00
2023-06-25T03:04:27.830Z,996.00
2023-06-25T03:05:27.857Z,997.00
2023-06-25T03:06:27.833Z,1002.00
2023-06-25T03:07:27.887Z,1004.00
2023-06-25T03:08:27.864Z,1018.00
2023-06-25T03:09:27.823Z,1018.00
2023-06-25T03:10:27.850Z,1028.00
2023-06-25T03:11:27.827Z,1038.00
2023-06-25T03:12:27.858Z,1050.00
2023-06-25T03:13:27.869Z,1054.00
2023-06-25T03:14:34.973Z,1067.00
2023-06-25T03:15:28.842Z,1067.00
2023-06-25T03:16:27.816Z,1069.00
2023-06-25T03:17:27.872Z,1068.00
2023-06-25T03:18:27.806Z,1075.00
2023-06-25T03:19:27.792Z,1083.00
2023-06-25T03:20:27.793Z,1085.00
2023-06-25T03:21:27.807Z,1082.00
2023-06-25T03:22:27.808Z,1076.00
2023-06-25T03:23:27.816Z,1080.00
2023-06-25T03:24:27.761Z,1075.00
2023-06-25T03:25:27.768Z,1078.00
2023-06-25T03:26:27.747Z,1087.00
2023-06-25T03:27:27.765Z,1088.00
2023-06-25T03:28:27.749Z,1085.00
2023-06-25T03:29:27.756Z,1086.00
2023-06-25T03:30:27.736Z,1088.00
2023-06-25T03:31:27.802Z,1089.00
2023-06-25T03:32:27.726Z,1095.00
2023-06-25T03:33:27.739Z,1092.00
2023-06-25T03:34:27.716Z,1096.00
2023-06-25T03:35:27.692Z,1099.00
2023-06-25T03:36:27.687Z,1100.00
2023-06-25T03:37:27.664Z,1102.00
2023-06-25T03:38:27.667Z,1102.00
2023-06-25T03:39:27.662Z,1100.00
2023-06-25T03:40:27.687Z,1103.00
2023-06-25T03:41:27.644Z,1105.00
2023-06-25T03:42:27.662Z,1102.00
2023-06-25T03:43:27.669Z,1090.00
2023-06-25T03:44:27.650Z,1081.00
2023-06-25T03:45:27.665Z,1082.00
2023-06-25T03:46:27.602Z,1079.00
2023-06-25T03:47:27.714Z,1072.00
2023-06-25T03:48:27.777Z,1076.00
2023-06-25T03:49:27.610Z,1071.00
2023-06-25T03:50:27.613Z,1072.00
2023-06-25T03:51:27.603Z,1063.00
2023-06-25T03:52:27.578Z,1069.00
2023-06-25T03:53:27.598Z,1076.00
2023-06-25T03:54:27.594Z,1064.00
2023-06-25T03:55:27.656Z,1056.00
2023-06-25T03:56:27.662Z,1061.00
2023-06-25T03:57:27.647Z,1068.00
2023-06-25T03:58:27.672Z,1059.00
2023-06-25T03:59:27.708Z,1059.00
2023-06-25T04:00:27.715Z,1065.00
2023-06-25T04:01:27.784Z,1075.00
2023-06-25T04:02:27.820Z,1064.00
2023-06-25T04:03:27.801Z,1069.00
2023-06-25T04:04:27.865Z,1068.00
2023-06-25T04:05:27.822Z,1072.00
2023-06-25T04:06:27.873Z,1079.00
2023-06-25T04:07:27.937Z,1075.00
2023-06-25T04:08:27.913Z,1069.00
2023-06-25T04:09:27.905Z,1079.00
2023-06-25T04:10:27.936Z,1080.00
2023-06-25T04:11:27.921Z,1070.00
2023-06-25T04:12:27.979Z,1077.00
2023-06-25T04:13:28.003Z,1072.00
2023-06-25T04:14:27.986Z,1086.00
2023-06-25T04:15:28.031Z,1073.00
2023-06-25T04:16:28.020Z,1085.00
2023-06-25T04:17:28.051Z,1078.00
2023-06-25T04:18:28.042Z,1076.00
2023-06-25T04:19:29.951Z,1082.00
2023-06-25T04:20:28.117Z,1084.00
2023-06-25T04:21:28.128Z,1093.00
2023-06-25T04:22:28.124Z,1085.00
2023-06-25T04:23:28.216Z,1082.00
2023-06-25T04:24:28.169Z,1092.00
2023-06-25T04:25:28.204Z,1101.00
2023-06-25T04:26:28.258Z,1099.00
2023-06-25T04:27:28.265Z,1098.00
2023-06-25T04:28:28.279Z,1092.00
2023-06-25T04:29:28.277Z,1094.00
2023-06-25T04:30:28.305Z,1101.00
2023-06-25T04:31:28.378Z,1104.00
2023-06-25T04:32:28.357Z,1104.00
2023-06-25T04:33:28.404Z,1103.00
2023-06-25T04:34:28.403Z,1105.00
2023-06-25T04:35:30.710Z,1103.00
2023-06-25T04:36:28.404Z,1117.00
2023-06-25T04:37:28.404Z,1109.00
2023-06-25T04:38:28.406Z,1103.00
2023-06-25T04:39:28.403Z,1098.00
2023-06-25T04:40:28.359Z,1098.00
2023-06-25T04:41:28.387Z,1098.00
2023-06-25T04:42:28.390Z,1104.00
2023-06-25T04:43:28.376Z,1099.00
2023-06-25T04:44:28.339Z,1096.00
2023-06-25T04:45:28.329Z,1085.00
2023-06-25T04:46:28.386Z,1092.00
2023-06-25T04:47:28.342Z,1091.00
2023-06-25T04:48:28.355Z,1075.00
2023-06-25T04:49:28.332Z,1063.00
2023-06-25T04:50:28.294Z,1058.00
2023-06-25T04:51:28.322Z,1047.00
2023-06-25T04:52:28.281Z,1042.00
2023-06-25T04:53:28.292Z,1031.00
2023-06-25T04:54:28.301Z,1028.00
2023-06-25T04:55:28.253Z,1022.00
2023-06-25T04:56:28.282Z,1025.00
2023-06-25T04:57:28.245Z,1031.00
2023-06-25T04:58:28.276Z,1030.00
2023-06-25T04:59:28.261Z,1029.00
2023-06-25T05:00:28.256Z,1034.00
2023-06-25T05:01:28.270Z,1039.00
2023-06-25T05:02:28.297Z,1030.00
2023-06-25T05:03:28.273Z,1035.00
2023-06-25T05:04:28.213Z,1030.00
2023-06-25T05:05:28.201Z,1036.00
2023-06-25T05:06:28.214Z,1038.00
2023-06-25T05:07:28.256Z,1039.00
2023-06-25T05:08:28.230Z,1032.00
2023-06-25T05:09:28.183Z,1040.00
2023-06-25T05:10:28.148Z,1036.00
2023-06-25T05:11:28.187Z,1039.00
2023-06-25T05:12:28.137Z,1024.00
2023-06-25T05:13:28.188Z,1032.00
2023-06-25T05:14:28.179Z,1035.00
2023-06-25T05:15:28.112Z,1032.00
2023-06-25T05:16:28.230Z,1028.00
2023-06-25T05:17:28.197Z,1026.00
2023-06-25T05:18:28.156Z,1026.00
2023-06-25T05:19:28.146Z,1023.00
2023-06-25T05:20:28.095Z,1024.00
2023-06-25T05:21:28.121Z,1021.00
2023-06-25T05:22:28.108Z,1020.00
2023-06-25T05:23:28.098Z,1018.00
2023-06-25T05:24:28.111Z,1010.00
2023-06-25T05:25:28.112Z,1016.00
2023-06-25T05:26:28.102Z,1013.00
2023-06-25T05:27:28.107Z,1023.00
2023-06-25T05:28:28.123Z,1007.00
2023-06-25T05:29:28.119Z,1001.00
2023-06-25T05:30:28.102Z,994.00
2023-06-25T05:31:28.167Z,998.00
2023-06-25T05:32:28.229Z,995.00
2023-06-25T05:33:28.207Z,991.00
2023-06-25T05:34:28.213Z,980.00
2023-06-25T05:35:28.195Z,983.00
2023-06-25T05:36:28.271Z,981.00
2023-06-25T05:37:28.249Z,976.00
2023-06-25T05:38:28.253Z,970.00
2023-06-25T05:39:28.274Z,969.00
2023-06-25T05:40:28.327Z,965.00
2023-06-25T05:41:28.352Z,972.00
2023-06-25T05:42:28.358Z,968.00
2023-06-25T05:43:28.381Z,971.00
2023-06-25T05:44:28.378Z,981.00
2023-06-25T05:45:28.434Z,974.00
2023-06-25T05:46:28.464Z,970.00
2023-06-25T05:47:28.419Z,966.00
2023-06-25T05:48:28.457Z,961.00
2023-06-25T05:49:28.433Z,961.00
2023-06-25T05:50:28.459Z,952.00
2023-06-25T05:51:28.469Z,956.00
2023-06-25T05:52:28.478Z,951.00
2023-06-25T05:53:28.526Z,955.00
2023-06-25T05:54:28.482Z,951.00
2023-06-25T05:55:28.494Z,960.00
2023-06-25T05:56:28.526Z,948.00
2023-06-25T05:57:28.567Z,954.00
2023-06-25T05:58:28.545Z,961.00
2023-06-25T05:59:28.567Z,965.00
2023-06-25T06:00:28.569Z,966.00
2023-06-25T06:01:28.652Z,972.00
2023-06-25T06:02:28.649Z,969.00
2023-06-25T06:03:28.627Z,968.00
2023-06-25T06:04:28.665Z,974.00
2023-06-25T06:05:28.635Z,973.00
2023-06-25T06:06:28.638Z,975.00
2023-06-25T06:07:28.777Z,968.00
2023-06-25T06:08:28.674Z,977.00
2023-06-25T06:09:28.688Z,972.00
2023-06-25T06:10:28.785Z,968.00
2023-06-25T06:11:28.726Z,981.00
2023-06-25T06:12:28.709Z,978.00
2023-06-25T06:13:28.730Z,974.00
2023-06-25T06:14:28.728Z,969.00
2023-06-25T06:15:28.733Z,955.00
2023-06-25T06:16:28.768Z,952.00
2023-06-25T06:17:28.776Z,947.00
2023-06-25T06:18:28.770Z,943.00
2023-06-25T06:19:28.719Z,940.00
2023-06-25T06:20:28.781Z,942.00
2023-06-25T06:21:28.808Z,937.00
2023-06-25T06:22:28.754Z,937.00
2023-06-25T06:23:28.774Z,933.00
2023-06-25T06:24:28.798Z,928.00
2023-06-25T06:25:28.707Z,929.00
2023-06-25T06:26:28.702Z,926.00
2023-06-25T06:27:28.735Z,918.00
2023-06-25T06:28:28.730Z,932.00
2023-06-25T06:29:28.744Z,918.00
2023-06-25T06:30:28.915Z,907.00
2023-06-25T06:31:28.887Z,895.00
2023-06-25T06:32:28.838Z,898.00
2023-06-25T06:33:28.868Z,902.00
2023-06-25T06:34:28.804Z,893.00
2023-06-25T06:35:28.817Z,882.00
2023-06-25T06:36:28.861Z,890.00
2023-06-25T06:37:28.915Z,889.00
2023-06-25T06:38:28.909Z,886.00
2023-06-25T06:39:28.894Z,891.00
2023-06-25T06:40:28.917Z,895.00
2023-06-25T06:41:28.976Z,890.00
2023-06-25T06:42:29.006Z,886.00
2023-06-25T06:43:29.053Z,887.00
2023-06-25T06:44:29.148Z,868.00
2023-06-25T06:45:29.197Z,860.00
2023-06-25T06:46:29.245Z,856.00
2023-06-25T06:47:29.367Z,851.00
2023-06-25T06:48:29.405Z,847.00
2023-06-25T06:49:29.470Z,844.00
2023-06-25T06:50:29.509Z,838.00
2023-06-25T06:51:29.577Z,829.00
2023-06-25T06:52:29.652Z,811.00
2023-06-25T06:53:29.755Z,794.00
2023-06-25T06:54:29.788Z,794.00
2023-06-25T06:55:29.821Z,789.00
2023-06-25T06:56:29.935Z,769.00
2023-06-25T06:57:30.030Z,755.00
2023-06-25T06:58:30.138Z,742.00
2023-06-25T06:59:30.195Z,724.00
2023-06-25T07:00:30.227Z,715.00
2023-06-25T07:01:30.314Z,719.00
2023-06-25T07:02:30.343Z,730.00
2023-06-25T07:03:30.420Z,720.00
2023-06-25T07:04:30.465Z,712.00
2023-06-25T07:05:30.531Z,706.00
2023-06-25T07:06:30.569Z,688.00
2023-06-25T07:07:30.687Z,691.00
2023-06-25T07:08:30.728Z,685.00
2023-06-25T07:09:30.768Z,680.00
2023-06-25T07:10:30.838Z,689.00
2023-06-25T07:11:30.889Z,680.00
2023-06-25T07:12:30.953Z,685.00
2023-06-25T07:13:31.018Z,714.00
2023-06-25T07:14:31.118Z,695.00
2023-06-25T07:15:31.133Z,723.00
2023-06-25T07:16:31.244Z,716.00
2023-06-25T07:17:31.249Z,727.00
2023-06-25T07:18:31.413Z,737.00
2023-06-25T07:19:31.405Z,737.00
2023-06-25T07:20:31.428Z,716.00
2023-06-25T07:21:31.536Z,713.00
2023-06-25T07:22:31.560Z,732.00
2023-06-25T07:23:31.636Z,722.00
2023-06-25T07:24:31.664Z,718.00
2023-06-25T07:25:31.767Z,711.00
2023-06-25T07:26:31.785Z,705.00
2023-06-25T07:27:31.807Z,712.00
2023-06-25T07:28:31.876Z,703.00
2023-06-25T07:29:31.962Z,694.00
2023-06-25T07:30:32.008Z,690.00
2023-06-25T07:31:32.107Z,707.00
2023-06-25T07:32:32.170Z,681.00
2023-06-25T07:33:32.202Z,709.00
2023-06-25T07:34:32.251Z,699.00
2023-06-25T07:35:32.301Z,692.00
2023-06-25T07:36:32.355Z,676.00
2023-06-25T07:37:32.412Z,693.00
2023-06-25T07:38:32.499Z,686.00
2023-06-25T07:39:32.536Z,686.00
2023-06-25T07:40:32.592Z,675.00
2023-06-25T07:41:32.654Z,684.00
2023-06-25T07:42:32.731Z,686.00
2023-06-25T07:43:32.788Z,680.00
2023-06-25T07:44:50.148Z,691.00
2023-06-25T07:45:33.866Z,689.00
2023-06-25T07:46:32.939Z,665.00
2023-06-25T07:47:32.870Z,683.00
2023-06-25T07:48:32.769Z,668.00
2023-06-25T07:49:32.778Z,666.00
2023-06-25T07:50:32.805Z,665.00
2023-06-25T07:51:32.773Z,660.00
2023-06-25T07:52:32.796Z,662.00
2023-06-25T07:53:32.751Z,655.00
2023-06-25T07:54:32.734Z,660.00
2023-06-25T07:55:32.757Z,656.00
2023-06-25T07:56:32.811Z,657.00
2023-06-25T07:57:32.875Z,659.00
2023-06-25T07:58:32.937Z,659.00
2023-06-25T07:59:46.939Z,651.00
2023-06-25T08:00:34.951Z,651.00
2023-06-25T08:01:32.956Z,651.00
2023-06-25T08:02:33.005Z,641.00
2023-06-25T08:03:33.007Z,652.00
2023-06-25T08:04:33.039Z,656.00
2023-06-25T08:05:32.933Z,649.00
2023-06-25T08:06:32.911Z,648.00
2023-06-25T08:07:34.432Z,647.00
2023-06-25T08:08:32.894Z,648.00
2023-06-25T08:09:32.885Z,650.00
2023-06-25T08:10:32.914Z,647.00
2023-06-25T08:11:32.921Z,647.00
2023-06-25T08:12:32.934Z,642.00
2023-06-25T08:13:32.950Z,630.00
2023-06-25T08:14:32.964Z,633.00
2023-06-25T08:15:33.003Z,635.00
2023-06-25T08:16:33.057Z,638.00
2023-06-25T08:17:33.132Z,631.00
2023-06-25T08:18:33.160Z,635.00
2023-06-25T08:19:33.189Z,626.00
2023-06-25T08:20:33.227Z,633.00
2023-06-25T08:21:33.257Z,620.00
2023-06-25T08:22:33.263Z,621.00
2023-06-25T08:23:33.347Z,607.00
2023-06-25T08:24:33.384Z,609.00
2023-06-25T08:25:33.389Z,600.00
2023-06-25T08:26:33.427Z,600.00
2023-06-25T08:27:33.473Z,602.00
2023-06-25T08:28:33.460Z,604.00
2023-06-25T08:29:33.505Z,602.00
2023-06-25T08:30:33.535Z,603.00
2023-06-25T08:31:33.716Z,613.00
2023-06-25T08:32:33.614Z,613.00
2023-06-25T08:33:33.639Z,620.00
2023-06-25T08:34:33.704Z,611.00
2023-06-25T08:35:33.660Z,615.00
2023-06-25T08:36:33.701Z,610.00
2023-06-25T08:37:33.696Z,614.00
2023-06-25T08:38:33.759Z,621.00
2023-06-25T08:39:33.788Z,622.00
2023-06-25T08:40:33.782Z,630.00
2023-06-25T08:41:33.824Z,629.00
2023-06-25T08:42:33.847Z,653.00
2023-06-25T08:43:33.833Z,639.00
2023-06-25T08:44:33.846Z,632.00
2023-06-25T08:45:33.860Z,640.00
2023-06-25T08:46:33.965Z,636.00
2023-06-25T08:47:33.895Z,634.00
2023-06-25T08:48:33.887Z,631.00
2023-06-25T08:49:33.880Z,622.00
2023-06-25T08:50:33.865Z,629.00
2023-06-25T08:51:33.896Z,633.00
2023-06-25T08:52:33.917Z,637.00
2023-06-25T08:53:33.924Z,644.00
2023-06-25T08:54:33.931Z,648.00
2023-06-25T08:55:33.932Z,642.00
2023-06-25T08:56:33.917Z,637.00
2023-06-25T08:57:33.930Z,633.00
2023-06-25T08:58:33.951Z,636.00
2023-06-25T08:59:33.899Z,643.00
2023-06-25T09:00:33.953Z,660.00
2023-06-25T09:01:33.929Z,693.00
2023-06-25T09:02:34.080Z,675.00
2023-06-25T09:03:33.977Z,675.00
2023-06-25T09:04:33.960Z,666.00
2023-06-25T09:05:33.955Z,627.00
2023-06-25T09:06:33.969Z,616.00
2023-06-25T09:07:33.969Z,609.00
2023-06-25T09:08:33.974Z,605.00
2023-06-25T09:09:33.949Z,610.00
2023-06-25T09:10:33.950Z,613.00
2023-06-25T09:11:33.920Z,616.00
2023-06-25T09:12:33.948Z,608.00
2023-06-25T09:13:33.953Z,622.00
2023-06-25T09:14:33.957Z,614.00
2023-06-25T09:15:33.951Z,610.00
2023-06-25T09:16:33.940Z,601.00
2023-06-25T09:17:34.043Z,602.00
2023-06-25T09:18:34.045Z,612.00
2023-06-25T09:19:34.035Z,611.00
2023-06-25T09:20:34.109Z,621.00
2023-06-25T09:21:34.161Z,699.00
2023-06-25T09:22:34.271Z,672.00
2023-06-25T09:23:34.268Z,658.00
2023-06-25T09:24:34.298Z,660.00
2023-06-25T09:25:34.392Z,682.00
2023-06-25T09:26:34.440Z,664.00
2023-06-25T09:27:34.564Z,712.00
2023-06-25T09:28:34.584Z,700.00
2023-06-25T09:29:34.619Z,648.00
2023-06-25T09:30:34.913Z,632.00
2023-06-25T09:31:34.738Z,623.00
2023-06-25T09:32:34.905Z,609.00
2023-06-25T09:33:34.849Z,633.00
2023-06-25T09:34:34.905Z,649.00
2023-06-25T09:35:34.960Z,658.00
2023-06-25T09:37:35.104Z,718.00
2023-06-25T09:38:35.144Z,718.00
2023-06-25T09:39:35.146Z,688.00
2023-06-25T09:40:35.426Z,686.00
2023-06-25T09:41:35.236Z,648.00
2023-06-25T09:42:35.320Z,647.00
2023-06-25T09:43:35.440Z,653.00
2023-06-25T09:44:35.432Z,646.00
2023-06-25T09:45:35.458Z,654.00
2023-06-25T09:46:35.625Z,639.00
2023-06-25T09:47:35.562Z,643.00
2023-06-25T09:48:35.571Z,654.00
2023-06-25T09:49:35.625Z,633.00
2023-06-25T09:50:35.926Z,658.00
2023-06-25T09:51:35.746Z,668.00
2023-06-25T09:52:35.807Z,669.00
2023-06-25T09:53:35.801Z,668.00
2023-06-25T09:54:35.854Z,665.00
2023-06-25T09:55:36.154Z,665.00
2023-06-25T09:56:35.918Z,652.00
2023-06-25T09:57:35.971Z,678.00
2023-06-25T09:58:36.054Z,664.00
2023-06-25T09:59:36.064Z,648.00
2023-06-25T10:00:36.120Z,641.00
2023-06-25T10:01:36.204Z,660.00
2023-06-25T10:02:36.289Z,683.00
2023-06-25T10:03:36.274Z,664.00
2023-06-25T10:04:36.306Z,659.00
2023-06-25T10:05:36.470Z,656.00
2023-06-25T10:06:36.336Z,671.00
2023-06-25T10:07:36.371Z,657.00
2023-06-25T10:08:36.435Z,644.00
2023-06-25T10:09:36.443Z,621.00
2023-06-25T10:10:36.759Z,630.00
2023-06-25T10:11:36.685Z,634.00
2023-06-25T10:12:36.523Z,633.00
2023-06-25T10:13:36.561Z,635.00
2023-06-25T10:14:36.589Z,643.00
2023-06-25T10:15:37.309Z,640.00
2023-06-25T10:16:39.387Z,645.00
2023-06-25T10:17:36.775Z,658.00
2023-06-25T10:18:36.720Z,652.00
2023-06-25T10:19:36.624Z,647.00
2023-06-25T10:20:36.715Z,655.00
2023-06-25T10:21:36.618Z,636.00
2023-06-25T10:22:36.626Z,639.00
2023-06-25T10:23:36.619Z,640.00
2023-06-25T10:24:36.582Z,646.00
2023-06-25T10:25:36.714Z,650.00
2023-06-25T10:26:36.601Z,649.00
2023-06-25T10:27:36.621Z,647.00
2023-06-25T10:28:36.575Z,649.00
2023-06-25T10:29:36.590Z,643.00
2023-06-25T10:30:36.594Z,657.00
2023-06-25T10:31:36.664Z,645.00
2023-06-25T10:32:36.615Z,652.00
2023-06-25T10:33:36.546Z,646.00
2023-06-25T10:34:36.554Z,652.00
2023-06-25T10:35:36.795Z,650.00
2023-06-25T10:36:36.512Z,659.00
2023-06-25T10:37:36.574Z,665.00
2023-06-25T10:38:36.513Z,664.00
2023-06-25T10:39:36.499Z,661.00
2023-06-25T10:40:36.469Z,654.00
2023-06-25T10:41:36.490Z,655.00
2023-06-25T10:42:36.534Z,655.00
2023-06-25T10:43:36.511Z,638.00
2023-06-25T10:44:36.476Z,648.00
2023-06-25T10:45:36.626Z,637.00
2023-06-25T10:46:36.632Z,643.00
2023-06-25T10:47:36.518Z,640.00
2023-06-25T10:48:36.482Z,627.00
2023-06-25T10:49:36.422Z,617.00
2023-06-25T10:50:36.428Z,624.00
2023-06-25T10:51:36.887Z,631.00
2023-06-25T10:52:36.417Z,633.00
2023-06-25T10:53:36.417Z,649.00
2023-06-25T10:54:36.381Z,655.00
2023-06-25T10:55:36.535Z,664.00
2023-06-25T10:56:36.435Z,657.00
2023-06-25T10:57:36.368Z,654.00
2023-06-25T10:58:36.387Z,653.00
2023-06-25T10:59:36.367Z,650.00
2023-06-25T11:00:36.374Z,648.00
2023-06-25T11:01:36.386Z,655.00
2023-06-25T11:02:36.406Z,665.00
2023-06-25T11:03:36.433Z,660.00
2023-06-25T11:04:36.338Z,654.00
2023-06-25T11:05:36.659Z,639.00
2023-06-25T11:06:36.320Z,627.00
2023-06-25T11:07:36.319Z,619.00
2023-06-25T11:08:36.302Z,627.00
2023-06-25T11:09:36.280Z,625.00
2023-06-25T11:10:36.288Z,630.00
2023-06-25T11:11:36.283Z,627.00
2023-06-25T11:12:36.266Z,619.00
2023-06-25T11:13:36.266Z,629.00
2023-06-25T11:14:36.281Z,628.00
2023-06-25T11:15:36.549Z,625.00
2023-06-25T11:16:36.242Z,627.00
2023-06-25T11:17:36.271Z,621.00
2023-06-25T11:18:36.248Z,621.00
2023-06-25T11:19:36.242Z,622.00
2023-06-25T11:20:36.399Z,628.00
2023-06-25T11:21:36.217Z,621.00
2023-06-25T11:22:36.224Z,630.00
2023-06-25T11:23:36.210Z,635.00
2023-06-25T11:24:36.216Z,632.00
2023-06-25T11:25:36.467Z,645.00
2023-06-25T11:26:36.190Z,644.00
2023-06-25T11:27:36.219Z,644.00
2023-06-25T11:28:36.157Z,647.00
2023-06-25T11:29:36.182Z,637.00
2023-06-25T11:30:36.183Z,644.00
2023-06-25T11:31:36.164Z,645.00
2023-06-25T11:32:36.173Z,640.00
2023-06-25T11:33:36.156Z,640.00
2023-06-25T11:34:36.134Z,644.00
2023-06-25T11:35:36.352Z,637.00
2023-06-25T11:36:36.133Z,627.00
2023-06-25T11:37:36.136Z,622.00
2023-06-25T11:38:36.175Z,627.00
2023-06-25T11:39:36.146Z,630.00
2023-06-25T11:40:36.156Z,633.00
2023-06-25T11:41:36.164Z,643.00
2023-06-25T11:42:36.198Z,639.00
2023-06-25T11:43:36.236Z,642.00
2023-06-25T11:44:36.194Z,652.00
2023-06-25T11:45:36.411Z,644.00
2023-06-25T11:46:36.239Z,636.00
2023-06-25T11:47:36.251Z,628.00
2023-06-25T11:48:36.262Z,628.00
2023-06-25T11:49:36.239Z,613.00
2023-06-25T11:50:36.233Z,614.00
2023-06-25T11:51:36.286Z,623.00
2023-06-25T11:52:36.251Z,626.00
2023-06-25T11:53:36.259Z,620.00
2023-06-25T11:54:36.256Z,620.00
2023-06-25T11:55:36.511Z,614.00
2023-06-25T11:56:36.258Z,615.00
2023-06-25T11:57:36.385Z,606.00
2023-06-25T11:58:36.327Z,610.00
2023-06-25T11:59:36.288Z,600.00
2023-06-25T12:00:36.283Z,608.00
2023-06-25T12:01:36.298Z,607.00
2023-06-25T12:02:49.087Z,600.00
2023-06-25T12:03:37.377Z,600.00
2023-06-25T12:04:36.379Z,602.00
2023-06-25T12:05:36.626Z,605.00
2023-06-25T12:06:36.297Z,609.00
2023-06-25T12:07:36.257Z,607.00
2023-06-25T12:08:36.294Z,605.00
2023-06-25T12:09:36.257Z,606.00
2023-06-25T12:10:36.266Z,600.00
2023-06-25T12:11:36.229Z,602.00
2023-06-25T12:12:36.247Z,600.00
2023-06-25T12:13:36.254Z,611.00
2023-06-25T12:14:36.216Z,613.00
2023-06-25T12:15:36.472Z,605.00
2023-06-25T12:16:36.238Z,605.00
2023-06-25T12:17:36.208Z,600.00
2023-06-25T12:18:36.197Z,602.00
2023-06-25T12:19:36.222Z,611.00
2023-06-25T12:20:36.168Z,605.00
2023-06-25T12:21:36.181Z,608.00